sensor_id;sensor_type;location;lat;lon;timestamp;pressure;altitude;pressure_sealevel;temperature;humidity
74631;BME280;63138;55.082;38.804;2023-12-20T00:00:01;98272.03;;;2.84;100.00
74631;BME280;63138;55.082;38.804;2023-12-20T00:02:46;98277.41;;;2.84;100.00
74631;BME280;63138;55.082;38.804;2023-12-20T00:05:13;98275.59;;;2.85;100.00
74631;BME280;63138;55.082;38.804;2023-12-20T00:07:39;98267.72;;;2.83;100.00
74631;BME280;63138;55.082;38.804;2023-12-20T00:10:06;98258.84;;;2.83;100.00
74631;BME280;63138;55.082;38.804;2023-12-20T00:12:33;98267.53;;;2.85;100.00
74631;BME280;63138;55.082;38.804;2023-12-20T00:14:58;98248.78;;;2.85;100.00
74631;BME280;63138;55.082;38.804;2023-12-20T00:17:24;98257.47;;;2.87;100.00
74631;BME280;63138;55.082;38.804;2023-12-20T00:19:50;98252.28;;;2.85;100.00
74631;BME280;63138;55.082;38.804;2023-12-20T00:22:16;98259.13;;;2.88;100.00
74631;BME280;63138;55.082;38.804;2023-12-20T00:24:42;98258.16;;;2.89;100.00
74631;BME280;63138;55.082;38.804;2023-12-20T00:27:08;98248.25;;;2.90;100.00
74631;BME280;63138;55.082;38.804;2023-12-20T00:29:37;98263.34;;;2.91;100.00
74631;BME280;63138;55.082;38.804;2023-12-20T00:32:03;98264.84;;;2.93;100.00
74631;BME280;63138;55.082;38.804;2023-12-20T00:34:29;98259.66;;;2.92;100.00
74631;BME280;63138;55.082;38.804;2023-12-20T00:36:55;98257.81;;;2.92;100.00
74631;BME280;63138;55.082;38.804;2023-12-20T00:39:21;98252.28;;;2.94;100.00
74631;BME280;63138;55.082;38.804;2023-12-20T00:41:47;98259.47;;;2.93;100.00
74631;BME280;63138;55.082;38.804;2023-12-20T00:44:13;98264.19;;;2.91;100.00
74631;BME280;63138;55.082;38.804;2023-12-20T00:46:39;98264.00;;;2.93;100.00
74631;BME280;63138;55.082;38.804;2023-12-20T00:49:05;98263.00;;;2.94;100.00
74631;BME280;63138;55.082;38.804;2023-12-20T00:51:31;98283.59;;;2.93;100.00
74631;BME280;63138;55.082;38.804;2023-12-20T00:53:57;98284.28;;;2.95;100.00
74631;BME280;63138;55.082;38.804;2023-12-20T00:56:23;98283.59;;;2.93;100.00
74631;BME280;63138;55.082;38.804;2023-12-20T00:58:49;98278.91;;;2.95;100.00
74631;BME280;63138;55.082;38.804;2023-12-20T01:01:15;98282.44;;;2.96;100.00
74631;BME280;63138;55.082;38.804;2023-12-20T01:03:41;98279.59;;;2.97;100.00
74631;BME280;63138;55.082;38.804;2023-12-20T01:06:07;98270.69;;;2.97;100.00
74631;BME280;63138;55.082;38.804;2023-12-20T01:08:33;98269.03;;;2.96;100.00
74631;BME280;63138;55.082;38.804;2023-12-20T01:11:00;98284.28;;;2.95;100.00
74631;BME280;63138;55.082;38.804;2023-12-20T01:13:29;98290.34;;;2.97;100.00
74631;BME280;63138;55.082;38.804;2023-12-20T01:15:55;98257.47;;;2.87;100.00
74631;BME280;63138;55.082;38.804;2023-12-20T01:18:21;98264.69;;;2.95;100.00
74631;BME280;63138;55.082;38.804;2023-12-20T01:20:46;98264.50;;;2.96;100.00
74631;BME280;63138;55.082;38.804;2023-12-20T01:23:12;98255.47;;;2.97;100.00
74631;BME280;63138;55.082;38.804;2023-12-20T01:25:39;98243.38;;;3.01;100.00
74631;BME280;63138;55.082;38.804;2023-12-20T01:28:05;98265.50;;;3.03;100.00
74631;BME280;63138;55.082;38.804;2023-12-20T01:30:31;98271.03;;;3.02;100.00
74631;BME280;63138;55.082;38.804;2023-12-20T01:32:56;98263.50;;;3.05;100.00
74631;BME280;63138;55.082;38.804;2023-12-20T01:35:22;98261.47;;;3.08;100.00
74631;BME280;63138;55.082;38.804;2023-12-20T01:37:48;98257.78;;;3.09;100.00
74631;BME280;63138;55.082;38.804;2023-12-20T01:40:14;98250.75;;;3.08;100.00
74631;BME280;63138;55.082;38.804;2023-12-20T01:42:40;98250.09;;;3.05;100.00
74631;BME280;63138;55.082;38.804;2023-12-20T01:45:07;98248.06;;;3.08;100.00
74631;BME280;63138;55.082;38.804;2023-12-20T01:47:33;98238.34;;;3.06;100.00
74631;BME280;63138;55.082;38.804;2023-12-20T01:49:59;98240.00;;;3.08;100.00
74631;BME280;63138;55.082;38.804;2023-12-20T01:52:30;98228.97;;;3.11;100.00
74631;BME280;63138;55.082;38.804;2023-12-20T01:54:56;98228.78;;;3.12;100.00
74631;BME280;63138;55.082;38.804;2023-12-20T01:57:30;98236.84;;;3.12;100.00
74631;BME280;63138;55.082;38.804;2023-12-20T01:59:56;98232.63;;;3.10;100.00
74631;BME280;63138;55.082;38.804;2023-12-20T02:02:22;98223.94;;;3.08;100.00
74631;BME280;63138;55.082;38.804;2023-12-20T02:04:48;98226.97;;;3.04;100.00
74631;BME280;63138;55.082;38.804;2023-12-20T02:07:17;98232.00;;;2.99;100.00
74631;BME280;63138;55.082;38.804;2023-12-20T02:09:44;98218.94;;;2.96;100.00
74631;BME280;63138;55.082;38.804;2023-12-20T02:12:10;98220.94;;;2.94;100.00
74631;BME280;63138;55.082;38.804;2023-12-20T02:14:36;98199.81;;;2.91;100.00
74631;BME280;63138;55.082;38.804;2023-12-20T02:17:02;98196.47;;;2.97;100.00
74631;BME280;63138;55.082;38.804;2023-12-20T02:19:53;98200.16;;;2.96;100.00
74631;BME280;63138;55.082;38.804;2023-12-20T02:22:19;98219.75;;;2.97;100.00
74631;BME280;63138;55.082;38.804;2023-12-20T02:24:45;98212.06;;;2.94;100.00
74631;BME280;63138;55.082;38.804;2023-12-20T02:27:11;98220.94;;;2.94;100.00
74631;BME280;63138;55.082;38.804;2023-12-20T02:29:37;98222.59;;;2.95;100.00
74631;BME280;63138;55.082;38.804;2023-12-20T02:32:03;98228.50;;;2.91;100.00
74631;BME280;63138;55.082;38.804;2023-12-20T02:34:29;98240.38;;;2.96;100.00
74631;BME280;63138;55.082;38.804;2023-12-20T02:36:55;98239.38;;;2.97;100.00
74631;BME280;63138;55.082;38.804;2023-12-20T02:39:22;98234.03;;;2.97;100.00
74631;BME280;63138;55.082;38.804;2023-12-20T02:41:48;98233.00;;;2.98;100.00
74631;BME280;63138;55.082;38.804;2023-12-20T02:44:14;98224.28;;;2.96;100.00
74631;BME280;63138;55.082;38.804;2023-12-20T02:46:40;98232.84;;;3.00;100.00
74631;BME280;63138;55.082;38.804;2023-12-20T02:49:07;98232.84;;;3.00;100.00
74631;BME280;63138;55.082;38.804;2023-12-20T02:51:33;98224.13;;;2.98;100.00
74631;BME280;63138;55.082;38.804;2023-12-20T02:53:59;98228.28;;;3.00;100.00
74631;BME280;63138;55.082;38.804;2023-12-20T02:56:24;98229.31;;;2.99;100.00
74631;BME280;63138;55.082;38.804;2023-12-20T02:58:50;98214.88;;;3.00;100.00
74631;BME280;63138;55.082;38.804;2023-12-20T03:01:16;98198.97;;;2.99;100.00
74631;BME280;63138;55.082;38.804;2023-12-20T03:03:42;98205.03;;;3.01;100.00
74631;BME280;63138;55.082;38.804;2023-12-20T03:06:08;98196.13;;;3.00;100.00
74631;BME280;63138;55.082;38.804;2023-12-20T03:08:34;98196.47;;;2.97;100.00
74631;BME280;63138;55.082;38.804;2023-12-20T03:10:59;98217.94;;;2.97;100.00
74631;BME280;63138;55.082;38.804;2023-12-20T03:13:25;98206.34;;;2.97;100.00
74631;BME280;63138;55.082;38.804;2023-12-20T03:15:52;98208.88;;;2.98;100.00
74631;BME280;63138;55.082;38.804;2023-12-20T03:18:18;98202.50;;;2.99;100.00
74631;BME280;63138;55.082;38.804;2023-12-20T03:20:44;98216.25;;;2.96;100.00
74631;BME280;63138;55.082;38.804;2023-12-20T03:23:09;98215.56;;;3.02;100.00
74631;BME280;63138;55.082;38.804;2023-12-20T03:25:35;98213.91;;;3.01;100.00
74631;BME280;63138;55.082;38.804;2023-12-20T03:28:01;98218.22;;;3.02;100.00
74631;BME280;63138;55.082;38.804;2023-12-20T03:30:27;98219.09;;;3.03;100.00
74631;BME280;63138;55.082;38.804;2023-12-20T03:32:53;98228.97;;;3.02;100.00
74631;BME280;63138;55.082;38.804;2023-12-20T03:35:19;98215.56;;;3.02;100.00
74631;BME280;63138;55.082;38.804;2023-12-20T03:37:45;98209.53;;;3.00;100.00
74631;BME280;63138;55.082;38.804;2023-12-20T03:40:11;98226.63;;;2.99;100.00
74631;BME280;63138;55.082;38.804;2023-12-20T03:42:37;98229.31;;;2.99;100.00
74631;BME280;63138;55.082;38.804;2023-12-20T03:45:03;98224.63;;;3.01;100.00
74631;BME280;63138;55.082;38.804;2023-12-20T03:47:30;98229.16;;;3.01;100.00
74631;BME280;63138;55.082;38.804;2023-12-20T03:49:56;98251.59;;;3.00;100.00
74631;BME280;63138;55.082;38.804;2023-12-20T03:52:21;98253.44;;;2.99;100.00
74631;BME280;63138;55.082;38.804;2023-12-20T03:54:48;98248.91;;;3.00;100.00
74631;BME280;63138;55.082;38.804;2023-12-20T03:57:13;98264.19;;;2.99;100.00
74631;BME280;63138;55.082;38.804;2023-12-20T03:59:39;98262.16;;;3.01;100.00
74631;BME280;63138;55.082;38.804;2023-12-20T04:02:06;98247.06;;;3.00;100.00
74631;BME280;63138;55.082;38.804;2023-12-20T04:04:32;98259.66;;;3.00;100.00
74631;BME280;63138;55.082;38.804;2023-12-20T04:07:16;98249.75;;;3.00;100.00
74631;BME280;63138;55.082;38.804;2023-12-20T04:09:42;98254.63;;;2.97;100.00
74631;BME280;63138;55.082;38.804;2023-12-20T04:12:08;98234.84;;;2.98;100.00
74631;BME280;63138;55.082;38.804;2023-12-20T04:14:34;98241.38;;;2.95;100.00
74631;BME280;63138;55.082;38.804;2023-12-20T04:17:00;98251.09;;;2.96;100.00
74631;BME280;63138;55.082;38.804;2023-12-20T04:19:26;98243.38;;;2.93;100.00
74631;BME280;63138;55.082;38.804;2023-12-20T04:21:52;98233.84;;;2.91;100.00
74631;BME280;63138;55.082;38.804;2023-12-20T04:24:18;98235.88;;;2.89;100.00
74631;BME280;63138;55.082;38.804;2023-12-20T04:26:44;98233.19;;;2.89;100.00
74631;BME280;63138;55.082;38.804;2023-12-20T04:29:09;98243.75;;;2.90;100.00
74631;BME280;63138;55.082;38.804;2023-12-20T04:31:35;98250.09;;;2.89;100.00
74631;BME280;63138;55.082;38.804;2023-12-20T04:34:02;98267.53;;;2.85;100.00
74631;BME280;63138;55.082;38.804;2023-12-20T04:36:28;98271.56;;;2.89;100.00
74631;BME280;63138;55.082;38.804;2023-12-20T04:38:55;98257.47;;;2.87;100.00
74631;BME280;63138;55.082;38.804;2023-12-20T04:41:21;98257.97;;;2.91;100.00
74631;BME280;63138;55.082;38.804;2023-12-20T04:43:47;98256.28;;;2.90;100.00
74631;BME280;63138;55.082;38.804;2023-12-20T04:46:13;98253.44;;;2.91;100.00
74631;BME280;63138;55.082;38.804;2023-12-20T04:48:39;98257.81;;;2.92;100.00
74631;BME280;63138;55.082;38.804;2023-12-20T04:51:05;98267.69;;;2.92;100.00
74631;BME280;63138;55.082;38.804;2023-12-20T04:53:31;98276.75;;;2.91;100.00
74631;BME280;63138;55.082;38.804;2023-12-20T04:55:57;98268.72;;;2.91;100.00
74631;BME280;63138;55.082;38.804;2023-12-20T04:58:23;98269.69;;;2.90;100.00
74631;BME280;63138;55.082;38.804;2023-12-20T05:00:49;98262.50;;;2.90;100.00
74631;BME280;63138;55.082;38.804;2023-12-20T05:03:15;98256.47;;;2.88;100.00
74631;BME280;63138;55.082;38.804;2023-12-20T05:05:41;98271.56;;;2.89;100.00
74631;BME280;63138;55.082;38.804;2023-12-20T05:08:07;98272.53;;;2.88;100.00
74631;BME280;63138;55.082;38.804;2023-12-20T05:10:33;98277.06;;;2.87;100.00
74631;BME280;63138;55.082;38.804;2023-12-20T05:12:59;98280.78;;;2.86;100.00
74631;BME280;63138;55.082;38.804;2023-12-20T05:15:25;98273.22;;;2.82;100.00
74631;BME280;63138;55.082;38.804;2023-12-20T05:17:51;98272.25;;;2.83;100.00
74631;BME280;63138;55.082;38.804;2023-12-20T05:20:18;98277.41;;;2.84;100.00
74631;BME280;63138;55.082;38.804;2023-12-20T05:22:44;98280.94;;;2.85;100.00
74631;BME280;63138;55.082;38.804;2023-12-20T05:25:10;98289.34;;;2.90;100.00
74631;BME280;63138;55.082;38.804;2023-12-20T05:27:36;98295.69;;;2.89;100.00
74631;BME280;63138;55.082;38.804;2023-12-20T05:30:02;98298.53;;;2.87;100.00
74631;BME280;63138;55.082;38.804;2023-12-20T05:32:31;98300.38;;;2.87;100.00
74631;BME280;63138;55.082;38.804;2023-12-20T05:34:57;98303.72;;;2.89;100.00
74631;BME280;63138;55.082;38.804;2023-12-20T05:37:22;98300.06;;;2.90;100.00
74631;BME280;63138;55.082;38.804;2023-12-20T05:39:49;98285.78;;;2.90;100.00
74631;BME280;63138;55.082;38.804;2023-12-20T05:42:15;98286.66;;;2.90;100.00
74631;BME280;63138;55.082;38.804;2023-12-20T05:44:41;98287.47;;;2.91;100.00
74631;BME280;63138;55.082;38.804;2023-12-20T05:47:06;98293.34;;;2.94;100.00
74631;BME280;63138;55.082;38.804;2023-12-20T05:49:32;98292.31;;;2.95;100.00
74631;BME280;63138;55.082;38.804;2023-12-20T05:51:59;98295.69;;;2.97;100.00
74631;BME280;63138;55.082;38.804;2023-12-20T05:54:25;98304.56;;;2.98;100.00
74631;BME280;63138;55.082;38.804;2023-12-20T05:56:52;98300.03;;;2.98;100.00
74631;BME280;63138;55.082;38.804;2023-12-20T05:59:18;98304.41;;;2.99;100.00
74631;BME280;63138;55.082;38.804;2023-12-20T06:01:44;98315.13;;;2.99;100.00
74631;BME280;63138;55.082;38.804;2023-12-20T06:04:10;98300.88;;;2.99;100.00
74631;BME280;63138;55.082;38.804;2023-12-20T06:06:41;98308.75;;;3.00;100.00
74631;BME280;63138;55.082;38.804;2023-12-20T06:09:07;98293.19;;;2.96;100.00
74631;BME280;63138;55.082;38.804;2023-12-20T06:11:33;98295.69;;;2.97;100.00
74631;BME280;63138;55.082;38.804;2023-12-20T06:13:59;98307.91;;;3.00;100.00
74631;BME280;63138;55.082;38.804;2023-12-20T06:16:25;98297.34;;;2.98;100.00
74631;BME280;63138;55.082;38.804;2023-12-20T06:18:51;98292.81;;;2.99;100.00
74631;BME280;63138;55.082;38.804;2023-12-20T06:21:17;98300.88;;;2.99;100.00
74631;BME280;63138;55.082;38.804;2023-12-20T06:23:43;98293.00;;;2.97;100.00
74631;BME280;63138;55.082;38.804;2023-12-20T06:26:09;98294.84;;;2.97;100.00
74631;BME280;63138;55.082;38.804;2023-12-20T06:28:35;98307.41;;;2.96;100.00
74631;BME280;63138;55.082;38.804;2023-12-20T06:31:01;98307.75;;;2.93;100.00
74631;BME280;63138;55.082;38.804;2023-12-20T06:33:27;98316.97;;;2.91;100.00
74631;BME280;63138;55.082;38.804;2023-12-20T06:35:53;98295.34;;;2.92;100.00
74631;BME280;63138;55.082;38.804;2023-12-20T06:38:19;98306.09;;;2.92;100.00
74631;BME280;63138;55.082;38.804;2023-12-20T06:40:46;98305.06;;;2.93;100.00
74631;BME280;63138;55.082;38.804;2023-12-20T06:43:12;98315.63;;;2.95;100.00
74631;BME280;63138;55.082;38.804;2023-12-20T06:45:39;98313.78;;;2.95;100.00
74631;BME280;63138;55.082;38.804;2023-12-20T06:48:05;98314.47;;;2.97;100.00
74631;BME280;63138;55.082;38.804;2023-12-20T06:50:31;98313.59;;;2.97;100.00
74631;BME280;63138;55.082;38.804;2023-12-20T06:52:57;98310.75;;;2.98;100.00
74631;BME280;63138;55.082;38.804;2023-12-20T06:55:23;98311.28;;;2.94;100.00
74631;BME280;63138;55.082;38.804;2023-12-20T06:57:49;98313.78;;;2.95;100.00
74631;BME280;63138;55.082;38.804;2023-12-20T07:00:15;98318.47;;;2.93;100.00
74631;BME280;63138;55.082;38.804;2023-12-20T07:02:44;98317.31;;;2.96;100.00
74631;BME280;63138;55.082;38.804;2023-12-20T07:05:09;98321.66;;;2.97;100.00
74631;BME280;63138;55.082;38.804;2023-12-20T07:07:35;98321.50;;;2.98;100.00
74631;BME280;63138;55.082;38.804;2023-12-20T07:10:01;98322.31;;;2.99;100.00
74631;BME280;63138;55.082;38.804;2023-12-20T07:12:29;98332.88;;;3.00;100.00
74631;BME280;63138;55.082;38.804;2023-12-20T07:14:55;98332.72;;;3.02;100.00
74631;BME280;63138;55.082;38.804;2023-12-20T07:17:22;98332.72;;;3.02;100.00
74631;BME280;63138;55.082;38.804;2023-12-20T07:19:48;98323.84;;;3.01;100.00
74631;BME280;63138;55.082;38.804;2023-12-20T07:22:14;98342.28;;;3.04;100.00
74631;BME280;63138;55.082;38.804;2023-12-20T07:24:40;98340.28;;;3.06;100.00
74631;BME280;63138;55.082;38.804;2023-12-20T07:27:06;98339.41;;;3.06;100.00
74631;BME280;63138;55.082;38.804;2023-12-20T07:29:50;98335.06;;;3.05;100.00
74631;BME280;63138;55.082;38.804;2023-12-20T07:32:16;98334.06;;;3.06;100.00
74631;BME280;63138;55.082;38.804;2023-12-20T07:34:43;98336.56;;;3.08;100.00
74631;BME280;63138;55.082;38.804;2023-12-20T07:37:09;98338.09;;;3.10;100.00
74631;BME280;63138;55.082;38.804;2023-12-20T07:39:39;98330.22;;;3.09;100.00
74631;BME280;63138;55.082;38.804;2023-12-20T07:42:09;98342.94;;;3.15;100.00
74631;BME280;63138;55.082;38.804;2023-12-20T07:44:35;98337.25;;;3.18;100.00
74631;BME280;63138;55.082;38.804;2023-12-20T07:47:02;98347.66;;;3.21;100.00
74631;BME280;63138;55.082;38.804;2023-12-20T07:49:28;98341.09;;;3.23;100.00
74631;BME280;63138;55.082;38.804;2023-12-20T07:51:53;98341.09;;;3.23;100.00
74631;BME280;63138;55.082;38.804;2023-12-20T07:54:19;98342.78;;;3.24;100.00
74631;BME280;63138;55.082;38.804;2023-12-20T07:56:46;98342.41;;;3.28;100.00
74631;BME280;63138;55.082;38.804;2023-12-20T07:59:14;98340.25;;;3.31;100.00
74631;BME280;63138;55.082;38.804;2023-12-20T08:01:39;98328.50;;;3.32;100.00
74631;BME280;63138;55.082;38.804;2023-12-20T08:04:06;98332.19;;;3.39;100.00
74631;BME280;63138;55.082;38.804;2023-12-20T08:06:32;98321.78;;;3.44;100.00
74631;BME280;63138;55.082;38.804;2023-12-20T08:08:58;98324.97;;;3.48;100.00
74631;BME280;63138;55.082;38.804;2023-12-20T08:11:24;98321.47;;;3.48;100.00
74631;BME280;63138;55.082;38.804;2023-12-20T08:13:49;98327.66;;;3.48;100.00
74631;BME280;63138;55.082;38.804;2023-12-20T08:16:15;98336.69;;;3.47;100.00
74631;BME280;63138;55.082;38.804;2023-12-20T08:18:43;98325.78;;;3.49;100.00
74631;BME280;63138;55.082;38.804;2023-12-20T08:21:10;98319.78;;;3.47;100.00
74631;BME280;63138;55.082;38.804;2023-12-20T08:23:37;98315.72;;;3.51;100.00
74631;BME280;63138;55.082;38.804;2023-12-20T08:26:07;98315.38;;;3.54;100.00
74631;BME280;63138;55.082;38.804;2023-12-20T08:28:33;98311.72;;;3.55;100.00
74631;BME280;63138;55.082;38.804;2023-12-20T08:30:59;98309.53;;;3.58;100.00
74631;BME280;63138;55.082;38.804;2023-12-20T08:33:25;98302.97;;;3.61;100.00
74631;BME280;63138;55.082;38.804;2023-12-20T08:35:52;98314.53;;;3.61;100.00
74631;BME280;63138;55.082;38.804;2023-12-20T08:38:18;98314.84;;;3.67;100.00
74631;BME280;63138;55.082;38.804;2023-12-20T08:40:44;98313.69;;;3.69;100.00
74631;BME280;63138;55.082;38.804;2023-12-20T08:43:10;98304.28;;;3.73;100.00
74631;BME280;63138;55.082;38.804;2023-12-20T08:45:37;98298.19;;;3.79;100.00
74631;BME280;63138;55.082;38.804;2023-12-20T08:48:04;98290.78;;;3.81;100.00
74631;BME280;63138;55.082;38.804;2023-12-20T08:50:31;98290.78;;;3.81;100.00
74631;BME280;63138;55.082;38.804;2023-12-20T08:52:57;98295.34;;;3.81;100.00
74631;BME280;63138;55.082;38.804;2023-12-20T08:55:23;98298.56;;;3.76;100.00
74631;BME280;63138;55.082;38.804;2023-12-20T08:57:49;98301.59;;;3.73;100.00
74631;BME280;63138;55.082;38.804;2023-12-20T09:00:16;98292.38;;;3.68;100.00
74631;BME280;63138;55.082;38.804;2023-12-20T09:02:43;98298.75;;;3.67;100.00
74631;BME280;63138;55.082;38.804;2023-12-20T09:05:10;98301.09;;;3.61;100.00
74631;BME280;63138;55.082;38.804;2023-12-20T09:07:36;98306.63;;;3.60;100.00
74631;BME280;63138;55.082;38.804;2023-12-20T09:10:04;98311.66;;;3.63;100.00
74631;BME280;63138;55.082;38.804;2023-12-20T09:12:30;98306.13;;;3.64;100.00
74631;BME280;63138;55.082;38.804;2023-12-20T09:14:56;98303.44;;;3.64;100.00
74631;BME280;63138;55.082;38.804;2023-12-20T09:17:22;98298.09;;;3.64;100.00
74631;BME280;63138;55.082;38.804;2023-12-20T09:19:49;98295.25;;;3.58;100.00
74631;BME280;63138;55.082;38.804;2023-12-20T09:22:15;98298.59;;;3.60;100.00
74631;BME280;63138;55.082;38.804;2023-12-20T09:24:41;98301.59;;;3.65;100.00
74631;BME280;63138;55.082;38.804;2023-12-20T09:27:07;98305.97;;;3.66;100.00
74631;BME280;63138;55.082;38.804;2023-12-20T09:29:33;98301.28;;;3.60;100.00
74631;BME280;63138;55.082;38.804;2023-12-20T09:31:59;98302.78;;;3.62;100.00
74631;BME280;63138;55.082;38.804;2023-12-20T09:34:25;98310.69;;;3.64;100.00
74631;BME280;63138;55.082;38.804;2023-12-20T09:36:56;98308.00;;;3.64;100.00
74631;BME280;63138;55.082;38.804;2023-12-20T09:39:22;98307.63;;;3.67;100.00
74631;BME280;63138;55.082;38.804;2023-12-20T09:42:00;98305.66;;;3.61;100.00
74631;BME280;63138;55.082;38.804;2023-12-20T09:44:28;98311.84;;;3.61;100.00
74631;BME280;63138;55.082;38.804;2023-12-20T09:46:55;98297.41;;;3.62;100.00
74631;BME280;63138;55.082;38.804;2023-12-20T09:49:22;98294.91;;;3.61;100.00
74631;BME280;63138;55.082;38.804;2023-12-20T09:51:54;98303.13;;;3.59;100.00
74631;BME280;63138;55.082;38.804;2023-12-20T09:54:21;98310.69;;;3.64;100.00
74631;BME280;63138;55.082;38.804;2023-12-20T09:56:47;98304.66;;;3.62;100.00
74631;BME280;63138;55.082;38.804;2023-12-20T09:59:14;98306.97;;;3.65;100.00
74631;BME280;63138;55.082;38.804;2023-12-20T10:01:41;98312.50;;;3.63;100.00
74631;BME280;63138;55.082;38.804;2023-12-20T10:04:09;98307.34;;;3.62;100.00
74631;BME280;63138;55.082;38.804;2023-12-20T10:06:40;98301.97;;;3.62;100.00
74631;BME280;63138;55.082;38.804;2023-12-20T10:09:06;98302.78;;;3.62;100.00
74631;BME280;63138;55.082;38.804;2023-12-20T10:11:32;98298.28;;;3.55;100.00
74631;BME280;63138;55.082;38.804;2023-12-20T10:14:01;98304.44;;;3.63;100.00
74631;BME280;63138;55.082;38.804;2023-12-20T10:16:28;98315.19;;;3.63;100.00
74631;BME280;63138;55.082;38.804;2023-12-20T10:18:55;98320.56;;;3.63;100.00
74631;BME280;63138;55.082;38.804;2023-12-20T10:21:22;98296.75;;;3.60;100.00
74631;BME280;63138;55.082;38.804;2023-12-20T10:23:49;98309.31;;;3.60;100.00
74631;BME280;63138;55.082;38.804;2023-12-20T10:26:19;98310.50;;;3.57;100.00
74631;BME280;63138;55.082;38.804;2023-12-20T10:28:50;98307.00;;;3.57;100.00
74631;BME280;63138;55.082;38.804;2023-12-20T10:31:35;98304.16;;;3.50;100.00
74631;BME280;63138;55.082;38.804;2023-12-20T10:34:02;98299.63;;;3.51;100.00
74631;BME280;63138;55.082;38.804;2023-12-20T10:36:31;98292.75;;;3.48;100.00
74631;BME280;63138;55.082;38.804;2023-12-20T10:38:58;98311.38;;;3.50;100.00
74631;BME280;63138;55.082;38.804;2023-12-20T10:41:32;98306.34;;;3.47;100.00
74631;BME280;63138;55.082;38.804;2023-12-20T10:44:06;98305.34;;;3.48;100.00
74631;BME280;63138;55.082;38.804;2023-12-20T10:46:34;98298.28;;;3.47;100.00
74631;BME280;63138;55.082;38.804;2023-12-20T10:49:05;98308.34;;;3.53;100.00
74631;BME280;63138;55.082;38.804;2023-12-20T10:51:31;98316.75;;;3.50;100.00
74631;BME280;63138;55.082;38.804;2023-12-20T10:54:00;98315.09;;;3.40;100.00
74631;BME280;63138;55.082;38.804;2023-12-20T10:56:32;98311.38;;;3.41;100.00
74631;BME280;63138;55.082;38.804;2023-12-20T10:59:02;98309.53;;;3.42;100.00
74631;BME280;63138;55.082;38.804;2023-12-20T11:01:32;98311.38;;;3.41;100.00
74631;BME280;63138;55.082;38.804;2023-12-20T11:04:06;98306.34;;;3.38;100.00
74631;BME280;63138;55.082;38.804;2023-12-20T11:09:23;98319.28;;;3.35;100.00
74631;BME280;63138;55.082;38.804;2023-12-20T11:12:21;98319.47;;;3.33;100.00
74631;BME280;63138;55.082;38.804;2023-12-20T11:14:53;98319.78;;;3.30;100.00
74631;BME280;63138;55.082;38.804;2023-12-20T11:17:22;98318.97;;;3.30;100.00
74631;BME280;63138;55.082;38.804;2023-12-20T11:22:31;98323.13;;;3.24;100.00
74631;BME280;63138;55.082;38.804;2023-12-20T11:25:06;98317.47;;;3.19;100.00
74631;BME280;63138;55.082;38.804;2023-12-20T11:27:34;98318.63;;;3.16;100.00
74631;BME280;63138;55.082;38.804;2023-12-20T11:30:03;98310.75;;;3.15;100.00
74631;BME280;63138;55.082;38.804;2023-12-20T11:32:34;98316.13;;;3.15;100.00
74631;BME280;63138;55.082;38.804;2023-12-20T11:37:35;98320.97;;;3.11;100.00
74631;BME280;63138;55.082;38.804;2023-12-20T11:40:12;98309.75;;;3.08;100.00
74631;BME280;63138;55.082;38.804;2023-12-20T11:42:50;98328.88;;;3.04;100.00
74631;BME280;63138;55.082;38.804;2023-12-20T11:45:23;98317.97;;;2.98;100.00
74631;BME280;63138;55.082;38.804;2023-12-20T11:47:51;98333.53;;;3.02;100.00
74631;BME280;63138;55.082;38.804;2023-12-20T11:50:19;98330.03;;;3.02;100.00
74631;BME280;63138;55.082;38.804;2023-12-20T11:52:46;98327.34;;;3.02;100.00
74631;BME280;63138;55.082;38.804;2023-12-20T11:55:12;98337.56;;;2.98;100.00
74631;BME280;63138;55.082;38.804;2023-12-20T11:57:38;98332.22;;;2.98;100.00
74631;BME280;63138;55.082;38.804;2023-12-20T12:00:05;98336.91;;;2.96;100.00
74631;BME280;63138;55.082;38.804;2023-12-20T12:02:38;98326.88;;;2.90;100.00
74631;BME280;63138;55.082;38.804;2023-12-20T12:05:06;98331.03;;;2.84;100.00
74631;BME280;63138;55.082;38.804;2023-12-20T12:07:34;98330.03;;;2.85;100.00
74631;BME280;63138;55.082;38.804;2023-12-20T12:10:00;98335.56;;;2.84;100.00
74631;BME280;63138;55.082;38.804;2023-12-20T12:12:29;98333.91;;;2.83;100.00
74631;BME280;63138;55.082;38.804;2023-12-20T12:14:55;98337.06;;;2.78;100.00
74631;BME280;63138;55.082;38.804;2023-12-20T12:17:41;98337.91;;;2.79;100.00
74631;BME280;63138;55.082;38.804;2023-12-20T12:20:07;98339.59;;;2.80;100.00
74631;BME280;63138;55.082;38.804;2023-12-20T12:22:35;98330.72;;;2.79;100.00
74631;BME280;63138;55.082;38.804;2023-12-20T12:25:13;98330.88;;;2.78;100.00
74631;BME280;63138;55.082;38.804;2023-12-20T12:27:40;98335.38;;;2.77;100.00
74631;BME280;63138;55.082;38.804;2023-12-20T12:30:08;98338.06;;;2.77;100.00
74631;BME280;63138;55.082;38.804;2023-12-20T12:32:36;98348.63;;;2.79;100.00
74631;BME280;63138;55.082;38.804;2023-12-20T12:35:05;98344.28;;;2.78;100.00
74631;BME280;63138;55.082;38.804;2023-12-20T12:37:34;98350.63;;;2.77;100.00
74631;BME280;63138;55.082;38.804;2023-12-20T12:40:01;98354.84;;;2.79;100.00
74631;BME280;63138;55.082;38.804;2023-12-20T12:42:30;98357.69;;;2.78;100.00
74631;BME280;63138;55.082;38.804;2023-12-20T12:44:57;98355.16;;;2.76;100.00
74631;BME280;63138;55.082;38.804;2023-12-20T12:47:24;98356.31;;;2.74;100.00
74631;BME280;63138;55.082;38.804;2023-12-20T12:49:51;98363.53;;;2.73;100.00
74631;BME280;63138;55.082;38.804;2023-12-20T12:52:19;98362.69;;;2.73;100.00
74631;BME280;63138;55.082;38.804;2023-12-20T12:54:46;98366.88;;;2.75;100.00
74631;BME280;63138;55.082;38.804;2023-12-20T12:57:14;98368.06;;;2.73;100.00